sensor_id;sensor_type;location;lat;lon;timestamp;P1;durP1;ratioP1;P2;durP2;ratioP2
55913;SDS011;58179;48.776;9.124;2023-04-24T00:00:17;14.82;;;6.22;;
55913;SDS011;58179;48.776;9.124;2023-04-24T00:02:43;13.65;;;5.47;;
55913;SDS011;58179;48.776;9.124;2023-04-24T00:05:12;14.02;;;6.00;;
55913;SDS011;58179;48.776;9.124;2023-04-24T00:07:39;11.65;;;5.75;;
55913;SDS011;58179;48.776;9.124;2023-04-24T00:10:05;14.00;;;5.57;;
55913;SDS011;58179;48.776;9.124;2023-04-24T00:12:33;13.48;;;5.30;;
55913;SDS011;58179;48.776;9.124;2023-04-24T00:14:59;11.07;;;4.90;;
55913;SDS011;58179;48.776;9.124;2023-04-24T00:17:27;10.55;;;5.30;;
55913;SDS011;58179;48.776;9.124;2023-04-24T00:19:53;9.32;;;5.30;;
55913;SDS011;58179;48.776;9.124;2023-04-24T00:22:23;11.10;;;5.00;;
55913;SDS011;58179;48.776;9.124;2023-04-24T00:24:49;9.32;;;5.00;;
55913;SDS011;58179;48.776;9.124;2023-04-24T00:27:15;11.13;;;4.82;;
55913;SDS011;58179;48.776;9.124;2023-04-24T00:29:41;9.68;;;4.90;;
55913;SDS011;58179;48.776;9.124;2023-04-24T00:32:07;11.93;;;5.20;;
55913;SDS011;58179;48.776;9.124;2023-04-24T00:34:34;10.20;;;4.80;;
55913;SDS011;58179;48.776;9.124;2023-04-24T00:37:00;8.15;;;4.45;;
55913;SDS011;58179;48.776;9.124;2023-04-24T00:39:26;10.18;;;4.80;;
55913;SDS011;58179;48.776;9.124;2023-04-24T00:41:52;12.83;;;5.07;;
55913;SDS011;58179;48.776;9.124;2023-04-24T00:44:18;12.27;;;5.30;;
55913;SDS011;58179;48.776;9.124;2023-04-24T00:46:44;14.77;;;5.00;;
55913;SDS011;58179;48.776;9.124;2023-04-24T00:49:12;10.48;;;4.72;;
55913;SDS011;58179;48.776;9.124;2023-04-24T00:51:40;10.20;;;4.40;;
55913;SDS011;58179;48.776;9.124;2023-04-24T00:54:10;13.20;;;4.85;;
55913;SDS011;58179;48.776;9.124;2023-04-24T00:56:36;10.98;;;4.60;;
55913;SDS011;58179;48.776;9.124;2023-04-24T00:59:02;13.05;;;4.65;;
55913;SDS011;58179;48.776;9.124;2023-04-24T01:01:29;12.65;;;4.97;;
55913;SDS011;58179;48.776;9.124;2023-04-24T01:03:55;17.00;;;4.75;;
55913;SDS011;58179;48.776;9.124;2023-04-24T01:06:22;11.07;;;4.70;;
55913;SDS011;58179;48.776;9.124;2023-04-24T01:08:53;10.93;;;4.20;;
55913;SDS011;58179;48.776;9.124;2023-04-24T01:11:20;14.65;;;4.35;;
55913;SDS011;58179;48.776;9.124;2023-04-24T01:13:47;11.73;;;4.10;;
55913;SDS011;58179;48.776;9.124;2023-04-24T01:16:13;14.93;;;4.30;;
55913;SDS011;58179;48.776;9.124;2023-04-24T01:18:39;10.38;;;4.50;;
55913;SDS011;58179;48.776;9.124;2023-04-24T01:21:06;10.75;;;4.55;;
55913;SDS011;58179;48.776;9.124;2023-04-24T01:23:35;13.52;;;4.95;;
55913;SDS011;58179;48.776;9.124;2023-04-24T01:26:01;12.23;;;4.53;;
55913;SDS011;58179;48.776;9.124;2023-04-24T01:28:28;12.57;;;4.85;;
55913;SDS011;58179;48.776;9.124;2023-04-24T01:30:54;10.18;;;4.50;;
55913;SDS011;58179;48.776;9.124;2023-04-24T01:33:20;15.18;;;4.82;;
55913;SDS011;58179;48.776;9.124;2023-04-24T01:35:47;7.90;;;4.27;;
55913;SDS011;58179;48.776;9.124;2023-04-24T01:38:14;10.60;;;4.57;;
55913;SDS011;58179;48.776;9.124;2023-04-24T01:40:41;9.57;;;4.50;;
55913;SDS011;58179;48.776;9.124;2023-04-24T01:43:07;13.40;;;5.35;;
55913;SDS011;58179;48.776;9.124;2023-04-24T01:45:33;11.57;;;5.20;;
55913;SDS011;58179;48.776;9.124;2023-04-24T01:47:59;10.55;;;5.18;;
55913;SDS011;58179;48.776;9.124;2023-04-24T01:50:26;12.52;;;4.65;;
55913;SDS011;58179;48.776;9.124;2023-04-24T01:52:51;12.18;;;4.97;;
55913;SDS011;58179;48.776;9.124;2023-04-24T01:55:18;12.00;;;5.20;;
55913;SDS011;58179;48.776;9.124;2023-04-24T01:57:45;11.07;;;4.90;;
55913;SDS011;58179;48.776;9.124;2023-04-24T02:00:11;16.17;;;5.28;;
55913;SDS011;58179;48.776;9.124;2023-04-24T02:02:38;11.40;;;4.90;;
55913;SDS011;58179;48.776;9.124;2023-04-24T02:05:05;14.82;;;5.18;;
55913;SDS011;58179;48.776;9.124;2023-04-24T02:07:32;11.90;;;5.10;;
55913;SDS011;58179;48.776;9.124;2023-04-24T02:09:58;11.73;;;4.78;;
55913;SDS011;58179;48.776;9.124;2023-04-24T02:12:24;11.88;;;4.97;;
55913;SDS011;58179;48.776;9.124;2023-04-24T02:14:52;8.02;;;4.70;;
55913;SDS011;58179;48.776;9.124;2023-04-24T02:17:18;13.45;;;5.20;;
55913;SDS011;58179;48.776;9.124;2023-04-24T02:19:44;8.57;;;4.30;;
55913;SDS011;58179;48.776;9.124;2023-04-24T02:22:10;11.37;;;5.03;;
55913;SDS011;58179;48.776;9.124;2023-04-24T02:24:36;16.38;;;4.75;;
55913;SDS011;58179;48.776;9.124;2023-04-24T02:27:02;12.35;;;5.00;;
55913;SDS011;58179;48.776;9.124;2023-04-24T02:29:28;11.02;;;4.90;;
55913;SDS011;58179;48.776;9.124;2023-04-24T02:31:56;8.50;;;4.57;;
55913;SDS011;58179;48.776;9.124;2023-04-24T02:34:22;10.50;;;4.30;;
55913;SDS011;58179;48.776;9.124;2023-04-24T02:36:48;8.87;;;4.20;;
55913;SDS011;58179;48.776;9.124;2023-04-24T02:39:14;9.90;;;4.32;;
55913;SDS011;58179;48.776;9.124;2023-04-24T02:41:43;11.82;;;4.28;;
55913;SDS011;58179;48.776;9.124;2023-04-24T02:44:09;12.68;;;4.25;;
55913;SDS011;58179;48.776;9.124;2023-04-24T02:46:35;8.77;;;4.50;;
55913;SDS011;58179;48.776;9.124;2023-04-24T02:49:02;16.55;;;5.00;;
55913;SDS011;58179;48.776;9.124;2023-04-24T02:51:28;11.27;;;4.50;;
55913;SDS011;58179;48.776;9.124;2023-04-24T02:53:54;15.30;;;4.90;;
55913;SDS011;58179;48.776;9.124;2023-04-24T02:56:20;16.92;;;5.63;;
55913;SDS011;58179;48.776;9.124;2023-04-24T02:58:46;16.25;;;5.22;;
55913;SDS011;58179;48.776;9.124;2023-04-24T03:01:12;13.05;;;5.20;;
55913;SDS011;58179;48.776;9.124;2023-04-24T03:03:38;13.23;;;5.40;;
55913;SDS011;58179;48.776;9.124;2023-04-24T03:06:06;10.43;;;5.60;;
55913;SDS011;58179;48.776;9.124;2023-04-24T03:08:32;15.15;;;5.53;;
55913;SDS011;58179;48.776;9.124;2023-04-24T03:10:59;18.55;;;5.53;;
55913;SDS011;58179;48.776;9.124;2023-04-24T03:13:25;14.65;;;5.72;;
55913;SDS011;58179;48.776;9.124;2023-04-24T03:15:51;11.90;;;5.65;;
55913;SDS011;58179;48.776;9.124;2023-04-24T03:18:17;11.23;;;5.07;;
55913;SDS011;58179;48.776;9.124;2023-04-24T03:20:45;14.07;;;5.30;;
55913;SDS011;58179;48.776;9.124;2023-04-24T03:23:12;15.45;;;5.43;;
55913;SDS011;58179;48.776;9.124;2023-04-24T03:25:38;16.33;;;5.25;;
55913;SDS011;58179;48.776;9.124;2023-04-24T03:28:05;15.38;;;5.53;;
55913;SDS011;58179;48.776;9.124;2023-04-24T03:30:31;18.03;;;5.77;;
55913;SDS011;58179;48.776;9.124;2023-04-24T03:32:57;12.20;;;5.68;;
55913;SDS011;58179;48.776;9.124;2023-04-24T03:35:23;14.85;;;5.72;;
55913;SDS011;58179;48.776;9.124;2023-04-24T03:37:50;20.60;;;6.13;;
55913;SDS011;58179;48.776;9.124;2023-04-24T03:40:17;17.58;;;6.18;;
55913;SDS011;58179;48.776;9.124;2023-04-24T03:42:43;19.90;;;5.90;;
55913;SDS011;58179;48.776;9.124;2023-04-24T03:45:09;14.02;;;5.80;;
55913;SDS011;58179;48.776;9.124;2023-04-24T03:47:35;11.23;;;5.53;;
55913;SDS011;58179;48.776;9.124;2023-04-24T03:50:01;10.68;;;4.90;;
55913;SDS011;58179;48.776;9.124;2023-04-24T03:52:28;15.35;;;5.60;;
55913;SDS011;58179;48.776;9.124;2023-04-24T03:54:54;14.15;;;5.68;;
55913;SDS011;58179;48.776;9.124;2023-04-24T03:57:21;19.20;;;5.68;;
55913;SDS011;58179;48.776;9.124;2023-04-24T03:59:47;11.18;;;4.93;;
55913;SDS011;58179;48.776;9.124;2023-04-24T04:02:13;12.07;;;5.15;;
55913;SDS011;58179;48.776;9.124;2023-04-24T04:04:39;12.23;;;5.15;;
55913;SDS011;58179;48.776;9.124;2023-04-24T04:07:05;16.90;;;4.97;;
55913;SDS011;58179;48.776;9.124;2023-04-24T04:09:32;14.32;;;5.65;;
55913;SDS011;58179;48.776;9.124;2023-04-24T04:11:58;13.30;;;5.70;;
55913;SDS011;58179;48.776;9.124;2023-04-24T04:14:26;11.32;;;5.82;;
55913;SDS011;58179;48.776;9.124;2023-04-24T04:16:52;11.45;;;5.10;;
55913;SDS011;58179;48.776;9.124;2023-04-24T04:19:18;10.52;;;4.93;;
55913;SDS011;58179;48.776;9.124;2023-04-24T04:21:44;11.18;;;5.00;;
55913;SDS011;58179;48.776;9.124;2023-04-24T04:24:10;11.57;;;5.30;;
55913;SDS011;58179;48.776;9.124;2023-04-24T04:26:37;16.87;;;5.67;;
55913;SDS011;58179;48.776;9.124;2023-04-24T04:29:03;10.32;;;5.25;;
55913;SDS011;58179;48.776;9.124;2023-04-24T04:31:30;12.83;;;6.77;;
55913;SDS011;58179;48.776;9.124;2023-04-24T04:33:56;18.58;;;6.47;;
55913;SDS011;58179;48.776;9.124;2023-04-24T04:36:22;12.80;;;6.27;;
55913;SDS011;58179;48.776;9.124;2023-04-24T04:38:49;13.32;;;6.70;;
55913;SDS011;58179;48.776;9.124;2023-04-24T04:41:14;18.63;;;7.37;;
55913;SDS011;58179;48.776;9.124;2023-04-24T04:43:43;16.00;;;6.82;;
55913;SDS011;58179;48.776;9.124;2023-04-24T04:46:09;19.95;;;7.20;;
55913;SDS011;58179;48.776;9.124;2023-04-24T04:48:37;16.75;;;7.40;;
55913;SDS011;58179;48.776;9.124;2023-04-24T04:51:03;21.25;;;8.27;;
55913;SDS011;58179;48.776;9.124;2023-04-24T04:53:29;20.13;;;8.23;;
55913;SDS011;58179;48.776;9.124;2023-04-24T04:55:55;15.50;;;7.63;;
55913;SDS011;58179;48.776;9.124;2023-04-24T04:58:21;18.83;;;8.10;;
55913;SDS011;58179;48.776;9.124;2023-04-24T05:00:47;21.17;;;8.30;;
55913;SDS011;58179;48.776;9.124;2023-04-24T05:03:13;22.63;;;8.90;;
55913;SDS011;58179;48.776;9.124;2023-04-24T05:05:41;27.08;;;9.48;;
55913;SDS011;58179;48.776;9.124;2023-04-24T05:08:06;26.48;;;8.82;;
55913;SDS011;58179;48.776;9.124;2023-04-24T05:10:33;22.75;;;8.20;;
55913;SDS011;58179;48.776;9.124;2023-04-24T05:12:59;24.70;;;8.65;;
55913;SDS011;58179;48.776;9.124;2023-04-24T05:15:25;23.10;;;8.65;;
55913;SDS011;58179;48.776;9.124;2023-04-24T05:17:51;25.10;;;9.27;;
55913;SDS011;58179;48.776;9.124;2023-04-24T05:20:18;23.63;;;9.52;;
55913;SDS011;58179;48.776;9.124;2023-04-24T05:22:45;25.33;;;9.32;;
55913;SDS011;58179;48.776;9.124;2023-04-24T05:25:11;23.57;;;8.60;;
55913;SDS011;58179;48.776;9.124;2023-04-24T05:27:37;24.35;;;9.77;;
55913;SDS011;58179;48.776;9.124;2023-04-24T05:30:04;18.00;;;9.38;;
55913;SDS011;58179;48.776;9.124;2023-04-24T05:32:32;22.58;;;9.82;;
55913;SDS011;58179;48.776;9.124;2023-04-24T05:34:58;25.20;;;9.55;;
55913;SDS011;58179;48.776;9.124;2023-04-24T05:37:24;21.30;;;9.48;;
55913;SDS011;58179;48.776;9.124;2023-04-24T05:39:52;25.15;;;9.95;;
55913;SDS011;58179;48.776;9.124;2023-04-24T05:42:18;23.90;;;9.55;;
55913;SDS011;58179;48.776;9.124;2023-04-24T05:44:44;19.48;;;8.85;;
55913;SDS011;58179;48.776;9.124;2023-04-24T05:47:09;23.55;;;9.82;;
55913;SDS011;58179;48.776;9.124;2023-04-24T05:49:35;25.00;;;10.38;;
55913;SDS011;58179;48.776;9.124;2023-04-24T05:52:01;28.75;;;10.52;;
55913;SDS011;58179;48.776;9.124;2023-04-24T05:54:29;24.70;;;9.70;;
55913;SDS011;58179;48.776;9.124;2023-04-24T05:56:56;19.48;;;8.30;;
55913;SDS011;58179;48.776;9.124;2023-04-24T05:59:22;21.77;;;9.05;;
55913;SDS011;58179;48.776;9.124;2023-04-24T06:01:48;22.65;;;11.07;;
55913;SDS011;58179;48.776;9.124;2023-04-24T06:04:14;23.03;;;10.43;;
55913;SDS011;58179;48.776;9.124;2023-04-24T06:06:39;26.15;;;9.70;;
55913;SDS011;58179;48.776;9.124;2023-04-24T06:09:06;29.85;;;10.93;;
55913;SDS011;58179;48.776;9.124;2023-04-24T06:11:32;30.63;;;11.23;;
55913;SDS011;58179;48.776;9.124;2023-04-24T06:13:59;27.88;;;11.02;;
55913;SDS011;58179;48.776;9.124;2023-04-24T06:16:25;22.80;;;9.57;;
55913;SDS011;58179;48.776;9.124;2023-04-24T06:18:51;27.65;;;11.63;;
55913;SDS011;58179;48.776;9.124;2023-04-24T06:21:17;26.60;;;12.18;;
55913;SDS011;58179;48.776;9.124;2023-04-24T06:23:43;24.08;;;11.98;;
55913;SDS011;58179;48.776;9.124;2023-04-24T06:26:09;28.80;;;11.40;;
55913;SDS011;58179;48.776;9.124;2023-04-24T06:28:35;28.05;;;11.75;;
55913;SDS011;58179;48.776;9.124;2023-04-24T06:31:02;25.90;;;9.98;;
55913;SDS011;58179;48.776;9.124;2023-04-24T06:33:28;26.45;;;10.15;;
55913;SDS011;58179;48.776;9.124;2023-04-24T06:35:54;35.72;;;12.35;;
55913;SDS011;58179;48.776;9.124;2023-04-24T06:38:20;24.27;;;10.77;;
55913;SDS011;58179;48.776;9.124;2023-04-24T06:40:46;27.98;;;10.70;;
55913;SDS011;58179;48.776;9.124;2023-04-24T06:43:12;32.55;;;12.27;;
55913;SDS011;58179;48.776;9.124;2023-04-24T06:45:38;32.95;;;11.50;;
55913;SDS011;58179;48.776;9.124;2023-04-24T06:48:06;17.77;;;10.10;;
55913;SDS011;58179;48.776;9.124;2023-04-24T06:50:31;26.15;;;11.60;;
55913;SDS011;58179;48.776;9.124;2023-04-24T06:52:58;21.30;;;9.60;;
55913;SDS011;58179;48.776;9.124;2023-04-24T06:55:23;20.73;;;9.73;;
55913;SDS011;58179;48.776;9.124;2023-04-24T06:57:49;28.55;;;10.10;;
55913;SDS011;58179;48.776;9.124;2023-04-24T07:00:15;22.05;;;9.57;;
55913;SDS011;58179;48.776;9.124;2023-04-24T07:02:42;17.50;;;8.00;;
55913;SDS011;58179;48.776;9.124;2023-04-24T07:05:09;16.37;;;7.37;;
55913;SDS011;58179;48.776;9.124;2023-04-24T07:07:35;18.05;;;7.50;;
55913;SDS011;58179;48.776;9.124;2023-04-24T07:10:03;16.47;;;7.50;;
55913;SDS011;58179;48.776;9.124;2023-04-24T07:12:30;17.45;;;7.25;;
55913;SDS011;58179;48.776;9.124;2023-04-24T07:14:57;15.37;;;7.20;;
55913;SDS011;58179;48.776;9.124;2023-04-24T07:17:23;18.05;;;7.20;;
55913;SDS011;58179;48.776;9.124;2023-04-24T07:19:49;14.25;;;6.80;;
55913;SDS011;58179;48.776;9.124;2023-04-24T07:22:16;13.90;;;6.10;;
55913;SDS011;58179;48.776;9.124;2023-04-24T07:24:42;9.63;;;6.03;;
55913;SDS011;58179;48.776;9.124;2023-04-24T07:27:08;11.23;;;5.80;;
55913;SDS011;58179;48.776;9.124;2023-04-24T07:29:34;13.35;;;5.40;;
55913;SDS011;58179;48.776;9.124;2023-04-24T07:32:00;9.02;;;4.63;;
55913;SDS011;58179;48.776;9.124;2023-04-24T07:34:26;14.13;;;4.90;;
55913;SDS011;58179;48.776;9.124;2023-04-24T07:36:52;13.20;;;4.00;;
55913;SDS011;58179;48.776;9.124;2023-04-24T07:39:19;13.25;;;4.32;;
55913;SDS011;58179;48.776;9.124;2023-04-24T07:41:45;11.53;;;4.90;;
55913;SDS011;58179;48.776;9.124;2023-04-24T07:44:11;8.93;;;3.20;;
55913;SDS011;58179;48.776;9.124;2023-04-24T07:46:37;9.15;;;3.58;;
55913;SDS011;58179;48.776;9.124;2023-04-24T07:49:03;5.68;;;3.00;;
55913;SDS011;58179;48.776;9.124;2023-04-24T07:51:30;11.23;;;3.85;;
55913;SDS011;58179;48.776;9.124;2023-04-24T07:53:58;9.23;;;3.60;;
55913;SDS011;58179;48.776;9.124;2023-04-24T07:56:25;4.97;;;2.92;;
55913;SDS011;58179;48.776;9.124;2023-04-24T07:58:51;6.53;;;2.90;;
55913;SDS011;58179;48.776;9.124;2023-04-24T08:01:17;7.53;;;3.60;;
55913;SDS011;58179;48.776;9.124;2023-04-24T08:03:43;6.63;;;2.90;;
55913;SDS011;58179;48.776;9.124;2023-04-24T08:06:09;4.72;;;2.90;;
55913;SDS011;58179;48.776;9.124;2023-04-24T08:08:35;9.13;;;3.30;;
55913;SDS011;58179;48.776;9.124;2023-04-24T08:11:01;4.60;;;3.30;;
55913;SDS011;58179;48.776;9.124;2023-04-24T08:13:28;5.07;;;3.00;;
55913;SDS011;58179;48.776;9.124;2023-04-24T08:15:54;9.43;;;3.13;;
55913;SDS011;58179;48.776;9.124;2023-04-24T08:18:21;13.10;;;3.60;;
55913;SDS011;58179;48.776;9.124;2023-04-24T08:20:47;5.18;;;2.90;;
55913;SDS011;58179;48.776;9.124;2023-04-24T08:23:13;5.70;;;3.60;;
55913;SDS011;58179;48.776;9.124;2023-04-24T08:25:41;7.25;;;3.03;;
55913;SDS011;58179;48.776;9.124;2023-04-24T08:28:08;4.40;;;2.97;;
55913;SDS011;58179;48.776;9.124;2023-04-24T08:30:37;6.38;;;3.53;;
55913;SDS011;58179;48.776;9.124;2023-04-24T08:33:03;4.50;;;2.80;;
55913;SDS011;58179;48.776;9.124;2023-04-24T08:35:29;6.60;;;2.80;;
55913;SDS011;58179;48.776;9.124;2023-04-24T08:37:55;7.20;;;3.00;;
55913;SDS011;58179;48.776;9.124;2023-04-24T08:40:22;3.92;;;3.03;;
55913;SDS011;58179;48.776;9.124;2023-04-24T08:42:53;5.22;;;2.90;;
55913;SDS011;58179;48.776;9.124;2023-04-24T08:45:21;8.15;;;3.10;;
55913;SDS011;58179;48.776;9.124;2023-04-24T08:47:51;5.72;;;3.65;;
55913;SDS011;58179;48.776;9.124;2023-04-24T08:50:18;6.07;;;3.10;;
55913;SDS011;58179;48.776;9.124;2023-04-24T08:52:44;5.22;;;3.63;;
55913;SDS011;58179;48.776;9.124;2023-04-24T08:55:12;7.10;;;3.60;;
55913;SDS011;58179;48.776;9.124;2023-04-24T08:57:38;7.57;;;3.13;;
55913;SDS011;58179;48.776;9.124;2023-04-24T09:00:05;5.43;;;3.38;;
55913;SDS011;58179;48.776;9.124;2023-04-24T09:02:33;3.83;;;3.10;;
55913;SDS011;58179;48.776;9.124;2023-04-24T09:05:01;6.57;;;3.20;;
55913;SDS011;58179;48.776;9.124;2023-04-24T09:07:28;3.88;;;2.60;;
55913;SDS011;58179;48.776;9.124;2023-04-24T09:10:00;4.97;;;3.00;;
55913;SDS011;58179;48.776;9.124;2023-04-24T09:12:27;5.43;;;3.42;;
55913;SDS011;58179;48.776;9.124;2023-04-24T09:14:53;7.27;;;3.87;;
55913;SDS011;58179;48.776;9.124;2023-04-24T09:17:21;5.22;;;3.40;;
55913;SDS011;58179;48.776;9.124;2023-04-24T09:19:47;8.23;;;3.10;;
55913;SDS011;58179;48.776;9.124;2023-04-24T09:22:16;6.47;;;3.20;;
55913;SDS011;58179;48.776;9.124;2023-04-24T09:24:43;8.02;;;3.38;;
55913;SDS011;58179;48.776;9.124;2023-04-24T09:27:11;7.47;;;3.47;;
55913;SDS011;58179;48.776;9.124;2023-04-24T09:29:37;4.10;;;2.77;;
55913;SDS011;58179;48.776;9.124;2023-04-24T09:32:17;4.85;;;3.38;;
55913;SDS011;58179;48.776;9.124;2023-04-24T09:34:47;3.97;;;3.15;;
55913;SDS011;58179;48.776;9.124;2023-04-24T09:37:16;7.57;;;3.55;;
55913;SDS011;58179;48.776;9.124;2023-04-24T09:40:07;5.20;;;3.10;;
55913;SDS011;58179;48.776;9.124;2023-04-24T09:42:43;6.30;;;3.37;;
55913;SDS011;58179;48.776;9.124;2023-04-24T09:45:10;7.18;;;2.60;;
55913;SDS011;58179;48.776;9.124;2023-04-24T09:47:37;5.80;;;2.92;;
55913;SDS011;58179;48.776;9.124;2023-04-24T09:50:09;4.93;;;2.37;;
55913;SDS011;58179;48.776;9.124;2023-04-24T09:52:41;8.52;;;3.10;;
55913;SDS011;58179;48.776;9.124;2023-04-24T09:55:16;4.22;;;2.58;;
55913;SDS011;58179;48.776;9.124;2023-04-24T09:57:51;4.55;;;2.50;;
55913;SDS011;58179;48.776;9.124;2023-04-24T10:00:21;5.82;;;2.53;;
55913;SDS011;58179;48.776;9.124;2023-04-24T10:02:55;2.85;;;2.17;;
55913;SDS011;58179;48.776;9.124;2023-04-24T10:05:23;8.05;;;2.45;;
55913;SDS011;58179;48.776;9.124;2023-04-24T10:07:56;7.68;;;2.58;;
55913;SDS011;58179;48.776;9.124;2023-04-24T10:10:25;3.43;;;1.60;;
55913;SDS011;58179;48.776;9.124;2023-04-24T10:12:51;6.20;;;2.40;;
55913;SDS011;58179;48.776;9.124;2023-04-24T10:15:18;4.80;;;2.20;;
55913;SDS011;58179;48.776;9.124;2023-04-24T10:17:46;3.03;;;1.80;;
55913;SDS011;58179;48.776;9.124;2023-04-24T10:20:17;3.20;;;1.60;;
55913;SDS011;58179;48.776;9.124;2023-04-24T10:22:48;2.25;;;1.80;;
55913;SDS011;58179;48.776;9.124;2023-04-24T10:25:17;4.20;;;2.10;;
55913;SDS011;58179;48.776;9.124;2023-04-24T10:27:45;5.30;;;1.92;;
55913;SDS011;58179;48.776;9.124;2023-04-24T10:30:13;2.75;;;1.67;;
55913;SDS011;58179;48.776;9.124;2023-04-24T10:32:40;3.25;;;1.63;;
55913;SDS011;58179;48.776;9.124;2023-04-24T10:35:06;2.93;;;1.97;;
55913;SDS011;58179;48.776;9.124;2023-04-24T10:37:34;4.22;;;1.77;;
55913;SDS011;58179;48.776;9.124;2023-04-24T10:40:03;1.88;;;1.40;;
55913;SDS011;58179;48.776;9.124;2023-04-24T10:42:34;4.45;;;1.90;;
55913;SDS011;58179;48.776;9.124;2023-04-24T10:45:04;3.15;;;2.10;;
55913;SDS011;58179;48.776;9.124;2023-04-24T10:47:38;3.80;;;2.23;;
55913;SDS011;58179;48.776;9.124;2023-04-24T10:50:07;3.78;;;2.13;;
55913;SDS011;58179;48.776;9.124;2023-04-24T10:52:43;3.10;;;2.00;;
55913;SDS011;58179;48.776;9.124;2023-04-24T10:55:10;2.83;;;2.20;;
55913;SDS011;58179;48.776;9.124;2023-04-24T10:57:40;2.67;;;2.00;;
55913;SDS011;58179;48.776;9.124;2023-04-24T11:00:29;3.78;;;2.50;;
55913;SDS011;58179;48.776;9.124;2023-04-24T11:02:55;2.60;;;1.98;;
55913;SDS011;58179;48.776;9.124;2023-04-24T11:05:22;4.18;;;2.40;;
55913;SDS011;58179;48.776;9.124;2023-04-24T11:08:24;4.32;;;1.80;;
55913;SDS011;58179;48.776;9.124;2023-04-24T11:10:57;4.75;;;2.30;;
55913;SDS011;58179;48.776;9.124;2023-04-24T11:16:32;4.00;;;1.60;;
55913;SDS011;58179;48.776;9.124;2023-04-24T11:19:00;3.10;;;1.98;;
55913;SDS011;58179;48.776;9.124;2023-04-24T11:21:31;3.35;;;1.95;;
55913;SDS011;58179;48.776;9.124;2023-04-24T11:26:50;3.00;;;2.10;;
55913;SDS011;58179;48.776;9.124;2023-04-24T11:29:18;2.42;;;2.20;;
55913;SDS011;58179;48.776;9.124;2023-04-24T11:31:46;4.70;;;2.10;;
55913;SDS011;58179;48.776;9.124;2023-04-24T11:34:15;3.15;;;2.00;;
55913;SDS011;58179;48.776;9.124;2023-04-24T11:36:42;2.22;;;1.98;;
55913;SDS011;58179;48.776;9.124;2023-04-24T11:39:09;3.33;;;2.07;;
55913;SDS011;58179;48.776;9.124;2023-04-24T11:41:36;3.30;;;1.90;;
55913;SDS011;58179;48.776;9.124;2023-04-24T11:44:02;3.40;;;1.90;;
55913;SDS011;58179;48.776;9.124;2023-04-24T11:46:33;3.92;;;1.73;;
55913;SDS011;58179;48.776;9.124;2023-04-24T11:48:59;2.95;;;1.85;;
55913;SDS011;58179;48.776;9.124;2023-04-24T11:51:26;5.10;;;1.85;;
55913;SDS011;58179;48.776;9.124;2023-04-24T11:53:52;2.00;;;1.80;;
55913;SDS011;58179;48.776;9.124;2023-04-24T11:56:19;2.42;;;1.63;;
55913;SDS011;58179;48.776;9.124;2023-04-24T11:58:47;2.78;;;2.17;;
55913;SDS011;58179;48.776;9.124;2023-04-24T12:01:13;2.67;;;2.10;;
55913;SDS011;58179;48.776;9.124;2023-04-24T12:03:43;6.68;;;1.80;;
55913;SDS011;58179;48.776;9.124;2023-04-24T12:06:14;3.63;;;1.73;;
55913;SDS011;58179;48.776;9.124;2023-04-24T12:08:39;1.92;;;1.67;;
55913;SDS011;58179;48.776;9.124;2023-04-24T12:11:06;2.67;;;1.40;;
55913;SDS011;58179;48.776;9.124;2023-04-24T12:13:33;2.60;;;1.60;;
55913;SDS011;58179;48.776;9.124;2023-04-24T12:16:00;2.88;;;2.00;;
55913;SDS011;58179;48.776;9.124;2023-04-24T12:18:28;3.47;;;1.73;;
55913;SDS011;58179;48.776;9.124;2023-04-24T12:21:01;2.22;;;1.70;;
55913;SDS011;58179;48.776;9.124;2023-04-24T12:23:42;3.87;;;2.00;;
55913;SDS011;58179;48.776;9.124;2023-04-24T12:26:09;2.92;;;1.92;;
55913;SDS011;58179;48.776;9.124;2023-04-24T12:28:36;2.17;;;1.60;;
55913;SDS011;58179;48.776;9.124;2023-04-24T12:31:03;3.08;;;1.50;;
55913;SDS011;58179;48.776;9.124;2023-04-24T12:33:32;4.32;;;2.10;;
55913;SDS011;58179;48.776;9.124;2023-04-24T12:36:01;3.03;;;2.03;;
55913;SDS011;58179;48.776;9.124;2023-04-24T12:38:28;2.90;;;1.90;;
55913;SDS011;58179;48.776;9.124;2023-04-24T12:41:02;6.15;;;1.80;;
55913;SDS011;58179;48.776;9.124;2023-04-24T12:43:29;2.22;;;1.75;;
55913;SDS011;58179;48.776;9.124;2023-04-24T12:45:55;4.45;;;1.50;;
55913;SDS011;58179;48.776;9.124;2023-04-24T12:48:22;5.32;;;1.40;;
55913;SDS011;58179;48.776;9.124;2023-04-24T12:50:48;2.13;;;1.60;;
55913;SDS011;58179;48.776;9.124;2023-04-24T12:53:15;3.67;;;1.67;;
55913;SDS011;58179;48.776;9.124;2023-04-24T12:55:41;2.30;;;1.33;;
55913;SDS011;58179;48.776;9.124;2023-04-24T12:58:07;4.25;;;1.58;;
55913;SDS011;58179;48.776;9.124;2023-04-24T13:00:33;2.40;;;1.48;;
55913;SDS011;58179;48.776;9.124;2023-04-24T13:02:59;1.88;;;1.35;;
55913;SDS011;58179;48.776;9.124;2023-04-24T13:05:26;5.07;;;1.85;;
55913;SDS011;58179;48.776;9.124;2023-04-24T13:07:52;2.92;;;1.90;;
55913;SDS011;58179;48.776;9.124;2023-04-24T13:10:19;7.25;;;1.63;;
55913;SDS011;58179;48.776;9.124;2023-04-24T13:12:45;3.35;;;1.67;;
55913;SDS011;58179;48.776;9.124;2023-04-24T13:15:11;3.50;;;1.60;;
55913;SDS011;58179;48.776;9.124;2023-04-24T13:17:38;2.42;;;1.50;;
55913;SDS011;58179;48.776;9.124;2023-04-24T13:20:04;3.90;;;1.70;;
55913;SDS011;58179;48.776;9.124;2023-04-24T13:22:31;3.83;;;1.42;;
55913;SDS011;58179;48.776;9.124;2023-04-24T13:24:57;2.92;;;1.40;;
55913;SDS011;58179;48.776;9.124;2023-04-24T13:27:24;1.98;;;1.42;;
55913;SDS011;58179;48.776;9.124;2023-04-24T13:29:50;3.33;;;1.63;;
55913;SDS011;58179;48.776;9.124;2023-04-24T13:32:16;2.40;;;1.40;;
55913;SDS011;58179;48.776;9.124;2023-04-24T13:34:42;3.17;;;1.80;;
55913;SDS011;58179;48.776;9.124;2023-04-24T13:37:08;3.47;;;1.73;;
55913;SDS011;58179;48.776;9.124;2023-04-24T13:39:34;4.18;;;1.90;;
55913;SDS011;58179;48.776;9.124;2023-04-24T13:42:00;4.28;;;1.95;;
55913;SDS011;58179;48.776;9.124;2023-04-24T13:44:28;3.33;;;2.30;;
55913;SDS011;58179;48.776;9.124;2023-04-24T13:46:54;3.85;;;1.80;;
55913;SDS011;58179;48.776;9.124;2023-04-24T13:49:22;2.67;;;2.27;;
55913;SDS011;58179;48.776;9.124;2023-04-24T13:51:52;5.88;;;2.75;;
55913;SDS011;58179;48.776;9.124;2023-04-24T13:54:19;4.65;;;3.05;;
55913;SDS011;58179;48.776;9.124;2023-04-24T13:56:48;5.00;;;3.35;;
55913;SDS011;58179;48.776;9.124;2023-04-24T13:59:14;6.68;;;4.15;;
55913;SDS011;58179;48.776;9.124;2023-04-24T14:01:42;3.25;;;2.95;;
55913;SDS011;58179;48.776;9.124;2023-04-24T14:04:09;3.47;;;2.50;;
55913;SDS011;58179;48.776;9.124;2023-04-24T14:06:36;2.65;;;2.38;;
55913;SDS011;58179;48.776;9.124;2023-04-24T14:09:02;6.05;;;2.45;;
55913;SDS011;58179;48.776;9.124;2023-04-24T14:11:28;4.25;;;2.67;;
55913;SDS011;58179;48.776;9.124;2023-04-24T14:13:54;4.25;;;3.00;;
55913;SDS011;58179;48.776;9.124;2023-04-24T14:16:23;4.55;;;3.00;;
55913;SDS011;58179;48.776;9.124;2023-04-24T14:18:51;4.80;;;2.40;;
55913;SDS011;58179;48.776;9.124;2023-04-24T14:21:17;4.70;;;2.35;;
55913;SDS011;58179;48.776;9.124;2023-04-24T14:23:43;3.30;;;2.10;;
55913;SDS011;58179;48.776;9.124;2023-04-24T14:26:09;2.42;;;2.10;;
55913;SDS011;58179;48.776;9.124;2023-04-24T14:28:35;5.38;;;1.83;;
55913;SDS011;58179;48.776;9.124;2023-04-24T14:31:01;2.50;;;1.58;;
55913;SDS011;58179;48.776;9.124;2023-04-24T14:33:27;1.75;;;1.33;;
55913;SDS011;58179;48.776;9.124;2023-04-24T14:35:54;2.05;;;1.30;;
55913;SDS011;58179;48.776;9.124;2023-04-24T14:38:22;2.97;;;1.33;;
55913;SDS011;58179;48.776;9.124;2023-04-24T14:40:48;11.82;;;1.77;;
55913;SDS011;58179;48.776;9.124;2023-04-24T14:43:14;4.03;;;1.77;;
55913;SDS011;58179;48.776;9.124;2023-04-24T14:45:40;4.97;;;1.88;;